createdAt,value
2023-04-02T00:00:22.523Z,97146.16
2023-04-02T00:02:58.109Z,97147.88
2023-04-02T00:05:55.539Z,97148.81
2023-04-02T00:08:39.997Z,97147.72
2023-04-02T00:11:09.324Z,97146.97
2023-04-02T00:13:39.197Z,97143.50
2023-04-02T00:16:10.305Z,97155.41
2023-04-02T00:18:41.837Z,97158.84
2023-04-02T00:21:13.430Z,97156.28
2023-04-02T00:23:42.822Z,97164.69
2023-04-02T00:26:23.370Z,97160.41
2023-04-02T00:28:52.050Z,97170.78
2023-04-02T00:31:23.041Z,97171.59
2023-04-02T00:33:51.980Z,97167.94
2023-04-02T00:36:23.269Z,97180.75
2023-04-02T00:38:52.194Z,97180.72
2023-04-02T00:41:24.049Z,97182.66
2023-04-02T00:43:54.140Z,97178.16
2023-04-02T00:46:27.803Z,97189.53
2023-04-02T00:48:59.356Z,97186.19
2023-04-02T00:51:31.171Z,97186.34
2023-04-02T00:54:02.344Z,97182.00
2023-04-02T00:56:33.484Z,97185.59
2023-04-02T00:59:01.771Z,97191.72
2023-04-02T01:01:36.827Z,97189.75
2023-04-02T01:04:06.300Z,97197.63
2023-04-02T01:06:37.473Z,97196.75
2023-04-02T01:09:12.917Z,97199.44
2023-04-02T01:11:58.710Z,97202.91
2023-04-02T01:14:36.540Z,97198.81
2023-04-02T01:17:16.215Z,97208.19
2023-04-02T01:20:01.209Z,97202.91
2023-04-02T01:22:35.701Z,97203.75
2023-04-02T01:25:05.143Z,97197.72
2023-04-02T01:27:37.949Z,97207.84
2023-04-02T01:30:10.443Z,97205.38
2023-04-02T01:32:39.147Z,97208.88
2023-04-02T01:35:09.293Z,97207.84
2023-04-02T01:37:45.100Z,97216.41
2023-04-02T01:40:31.553Z,97209.56
2023-04-02T01:43:03.979Z,97207.09
2023-04-02T01:45:35.549Z,97214.00
2023-04-02T01:48:07.464Z,97215.66
2023-04-02T01:50:37.458Z,97225.16
2023-04-02T01:53:07.636Z,97221.66
2023-04-02T01:55:41.055Z,97230.19
2023-04-02T01:58:11.737Z,97232.56
2023-04-02T02:00:45.740Z,97230.19
2023-04-02T02:03:14.919Z,97227.63
2023-04-02T02:05:46.204Z,97237.63
2023-04-02T02:08:23.981Z,97239.44
2023-04-02T02:10:53.127Z,97232.59
2023-04-02T02:13:22.638Z,97243.81
2023-04-02T02:15:52.482Z,97241.44
2023-04-02T02:18:23.533Z,97244.84
2023-04-02T02:20:52.417Z,97247.22
2023-04-02T02:23:21.195Z,97248.22
2023-04-02T02:25:49.570Z,97250.81
2023-04-02T02:28:19.977Z,97248.22
2023-04-02T02:30:49.755Z,97251.53
2023-04-02T02:33:22.711Z,97262.75
2023-04-02T02:35:54.423Z,97255.84
2023-04-02T02:38:44.803Z,97254.91
2023-04-02T02:41:18.293Z,97267.81
2023-04-02T02:43:50.718Z,97270.75
2023-04-02T02:46:21.644Z,97265.59
2023-04-02T02:48:52.432Z,97277.66
2023-04-02T02:51:23.359Z,97272.53
2023-04-02T02:53:54.980Z,97273.53
2023-04-02T02:56:25.141Z,97276.94
2023-04-02T02:58:56.089Z,97278.69
2023-04-02T03:01:24.914Z,97285.53
2023-04-02T03:03:56.945Z,97293.22
2023-04-02T03:06:26.018Z,97292.97
2023-04-02T03:08:59.442Z,97296.47
2023-04-02T03:11:31.200Z,97298.16
2023-04-02T03:14:04.933Z,97299.94
2023-04-02T03:16:37.417Z,97310.34
2023-04-02T03:19:11.002Z,97304.38
2023-04-02T03:21:42.221Z,97308.59
2023-04-02T03:24:13.815Z,97313.13
2023-04-02T03:26:47.782Z,97323.25
2023-04-02T03:29:18.062Z,97322.66
2023-04-02T03:31:49.491Z,97325.28
2023-04-02T03:34:23.980Z,97329.59
2023-04-02T03:36:54.353Z,97322.97
2023-04-02T03:39:25.855Z,97334.13
2023-04-02T03:41:57.820Z,97330.69
2023-04-02T03:44:29.691Z,97340.91
2023-04-02T03:46:59.865Z,97344.28
2023-04-02T03:49:32.978Z,97346.03
2023-04-02T03:52:04.368Z,97343.41
2023-04-02T03:54:32.748Z,97357.13
2023-04-02T03:57:00.766Z,97353.72
2023-04-02T03:59:34.846Z,97359.66
2023-04-02T04:02:09.366Z,97362.22
2023-04-02T04:04:41.524Z,97364.78
2023-04-02T04:07:12.904Z,97365.69
2023-04-02T04:09:43.975Z,97365.69
2023-04-02T04:12:16.189Z,97372.53
2023-04-02T04:14:46.564Z,97374.19
2023-04-02T04:17:17.819Z,97381.00
2023-04-02T04:19:49.674Z,97374.28
2023-04-02T04:22:19.223Z,97381.97
2023-04-02T04:24:48.574Z,97383.69
2023-04-02T04:27:21.366Z,97389.56
2023-04-02T04:29:53.735Z,97399.75
2023-04-02T04:32:27.859Z,97394.78
2023-04-02T04:35:01.239Z,97395.53
2023-04-02T04:37:34.145Z,97399.81
2023-04-02T04:40:08.084Z,97406.69
2023-04-02T04:42:40.106Z,97406.66
2023-04-02T04:45:13.504Z,97418.66
2023-04-02T04:47:44.124Z,97421.94
2023-04-02T04:50:16.263Z,97421.06
2023-04-02T04:52:45.719Z,97416.91
2023-04-02T04:55:27.399Z,97418.56
2023-04-02T04:57:59.089Z,97430.31
2023-04-02T05:00:30.052Z,97432.00
2023-04-02T05:03:03.591Z,97429.44
2023-04-02T05:05:35.309Z,97431.09
2023-04-02T05:08:07.272Z,97442.16
2023-04-02T05:10:39.283Z,97440.50
2023-04-02T05:13:10.437Z,97449.81
2023-04-02T05:15:42.673Z,97449.91
2023-04-02T05:18:20.356Z,97457.63
2023-04-02T05:20:53.907Z,97450.91
2023-04-02T05:23:25.791Z,97457.81
2023-04-02T05:25:56.005Z,97461.28
2023-04-02T05:28:27.858Z,97456.09
2023-04-02T05:30:57.804Z,97464.59
2023-04-02T05:33:27.325Z,97473.88
2023-04-02T05:36:00.735Z,97472.22
2023-04-02T05:38:29.903Z,97476.38
2023-04-02T05:41:01.538Z,97478.84
2023-04-02T05:43:31.622Z,97483.00
2023-04-02T05:46:02.609Z,97488.34
2023-04-02T05:48:33.234Z,97490.06
2023-04-02T05:51:05.010Z,97490.81
2023-04-02T05:53:35.560Z,97493.31
2023-04-02T05:56:08.040Z,97490.91
2023-04-02T05:58:39.188Z,97501.94
2023-04-02T06:01:17.994Z,97506.22
2023-04-02T06:03:49.959Z,97510.56
2023-04-02T06:06:24.171Z,97510.47
2023-04-02T06:08:57.157Z,97515.53
2023-04-02T06:11:27.061Z,97521.44
2023-04-02T06:13:55.170Z,97528.06
2023-04-02T06:16:26.213Z,97530.72
2023-04-02T06:18:54.434Z,97527.22
2023-04-02T06:21:24.068Z,97530.69
2023-04-02T06:23:54.944Z,97532.53
2023-04-02T06:26:26.644Z,97537.66
2023-04-02T06:28:57.817Z,97540.09
2023-04-02T06:31:29.549Z,97542.41
2023-04-02T06:33:57.974Z,97542.47
2023-04-02T06:36:28.927Z,97546.78
2023-04-02T06:38:59.029Z,97549.16
2023-04-02T06:41:27.428Z,97551.75
2023-04-02T06:43:57.230Z,97557.47
2023-04-02T06:46:29.471Z,97558.97
2023-04-02T06:49:01.164Z,97565.91
2023-04-02T06:51:32.969Z,97569.25
2023-04-02T06:54:01.629Z,97573.75
2023-04-02T06:56:38.246Z,97575.47
2023-04-02T06:59:07.810Z,97574.06
2023-04-02T07:01:39.154Z,97585.13
2023-04-02T07:04:07.637Z,97578.50
2023-04-02T07:06:37.233Z,97586.25
2023-04-02T07:09:06.875Z,97584.53
2023-04-02T07:11:35.149Z,97589.84
2023-04-02T07:14:03.118Z,97595.66
2023-04-02T07:16:32.202Z,97593.16
2023-04-02T07:19:00.121Z,97606.06
2023-04-02T07:21:28.685Z,97602.03
2023-04-02T07:23:58.809Z,97602.94
2023-04-02T07:26:28.667Z,97612.28
2023-04-02T07:28:57.968Z,97612.41
2023-04-02T07:31:27.263Z,97616.53
2023-04-02T07:33:58.114Z,97617.22
2023-04-02T07:36:26.582Z,97619.13
2023-04-02T07:38:55.035Z,97621.69
2023-04-02T07:41:24.662Z,97626.75
2023-04-02T07:43:52.654Z,97630.91
2023-04-02T07:46:20.991Z,97639.22
2023-04-02T07:48:49.082Z,97639.22
2023-04-02T07:51:18.636Z,97635.84
2023-04-02T07:53:50.552Z,97650.66
2023-04-02T07:56:19.814Z,97652.50
2023-04-02T07:58:49.539Z,97652.31
2023-04-02T08:01:19.601Z,97660.91
2023-04-02T08:03:48.154Z,97664.28
2023-04-02T08:06:16.323Z,97667.69
2023-04-02T08:08:44.276Z,97666.09
2023-04-02T08:11:13.100Z,97671.00
2023-04-02T08:13:42.016Z,97680.41
2023-04-02T08:16:12.401Z,97689.06
2023-04-02T08:18:40.940Z,97692.34
2023-04-02T08:21:09.952Z,97695.94
2023-04-02T08:23:39.065Z,97703.75
2023-04-02T08:26:08.374Z,97706.06
2023-04-02T08:28:36.702Z,97713.53
2023-04-02T08:31:05.569Z,97722.13
2023-04-02T08:33:35.008Z,97725.84
2023-04-02T08:36:04.117Z,97726.13
2023-04-02T08:38:32.109Z,97735.72
2023-04-02T08:41:01.865Z,97740.94
2023-04-02T08:43:37.608Z,97737.44
2023-04-02T08:46:12.801Z,97742.44
2023-04-02T08:48:44.759Z,97748.31
2023-04-02T08:51:21.452Z,97755.03
2023-04-02T08:53:50.461Z,97763.50
2023-04-02T08:56:20.409Z,97756.75
2023-04-02T08:58:50.054Z,97768.72
2023-04-02T09:01:22.846Z,97775.59
2023-04-02T09:03:56.000Z,97781.63
2023-04-02T09:06:24.448Z,97776.75
2023-04-02T09:08:53.193Z,97786.91
2023-04-02T09:11:24.615Z,97787.66
2023-04-02T09:13:55.645Z,97798.00
2023-04-02T09:16:28.121Z,97793.66
2023-04-02T09:18:58.061Z,97800.50
2023-04-02T09:21:35.049Z,97803.78
2023-04-02T09:24:04.724Z,97810.56
2023-04-02T09:26:34.261Z,97813.91
2023-04-02T09:29:04.041Z,97816.97
2023-04-02T09:31:35.771Z,97820.53
2023-04-02T09:34:26.358Z,97824.94
2023-04-02T09:36:54.374Z,97830.97
2023-04-02T09:39:24.365Z,97826.66
2023-04-02T09:42:02.713Z,97836.50
2023-04-02T09:44:33.360Z,97836.00
2023-04-02T09:47:04.131Z,97858.34
2023-04-02T09:49:35.358Z,97862.09
2023-04-02T09:52:17.940Z,97859.63
2023-04-02T09:54:46.304Z,97867.19
2023-04-02T09:57:24.235Z,97872.31
2023-04-02T10:00:25.319Z,97886.97
2023-04-02T10:03:04.581Z,97893.69
2023-04-02T10:08:11.236Z,97891.25
2023-04-02T10:10:42.689Z,97902.19
2023-04-02T10:13:19.389Z,97900.47
2023-04-02T10:15:50.948Z,97908.03
2023-04-02T10:18:23.865Z,97912.44
2023-04-02T10:20:54.795Z,97907.44
2023-04-02T10:23:26.247Z,97915.91
2023-04-02T10:25:56.304Z,97925.34
2023-04-02T10:28:32.637Z,97920.34
2023-04-02T10:31:04.977Z,97921.06
2023-04-02T10:33:37.100Z,97926.78
2023-04-02T10:36:10.529Z,97926.03
2023-04-02T10:38:43.071Z,97924.44
2023-04-02T10:41:26.971Z,97936.31
2023-04-02T10:44:16.797Z,97942.50
2023-04-02T10:46:51.393Z,97941.63
2023-04-02T10:49:24.547Z,97947.66
2023-04-02T10:51:57.485Z,97949.25
2023-04-02T10:54:39.112Z,97953.41
2023-04-02T10:57:10.875Z,97965.97
2023-04-02T10:59:42.023Z,97961.66
2023-04-02T11:02:27.564Z,97970.34
2023-04-02T11:04:59.881Z,97966.88
2023-04-02T11:07:33.928Z,97974.47
2023-04-02T11:10:02.372Z,97982.75
2023-04-02T11:12:41.769Z,97984.63
2023-04-02T11:15:16.519Z,97984.63
2023-04-02T11:17:45.105Z,97985.66
2023-04-02T11:20:31.843Z,97995.81
2023-04-02T11:23:11.508Z,97997.53
2023-04-02T11:25:39.731Z,97997.59
2023-04-02T11:28:15.754Z,97999.41
2023-04-02T11:30:44.209Z,97997.41
2023-04-02T11:33:36.644Z,98014.38
2023-04-02T11:36:27.148Z,98006.19
2023-04-02T11:39:01.892Z,98017.44
2023-04-02T11:41:54.478Z,98020.72
2023-04-02T11:44:26.284Z,98020.72
2023-04-02T11:46:55.165Z,98027.28
2023-04-02T11:49:40.091Z,98023.97
2023-04-02T11:52:35.745Z,98037.63
2023-04-02T11:55:22.495Z,98040.16
2023-04-02T11:58:09.197Z,98042.72
2023-04-02T12:00:57.529Z,98045.28
2023-04-02T12:03:35.271Z,98042.38
2023-04-02T12:06:07.706Z,98051.94
2023-04-02T12:08:47.449Z,98057.16
2023-04-02T12:11:32.188Z,98056.38
2023-04-02T12:14:01.144Z,98055.63
2023-04-02T12:16:34.614Z,98068.38
2023-04-02T12:19:02.670Z,98072.63
2023-04-02T12:21:30.809Z,98076.31
2023-04-02T12:24:00.265Z,98085.69
2023-04-02T12:26:38.663Z,98092.50
2023-04-02T12:29:16.651Z,98093.34
2023-04-02T12:31:47.724Z,98093.41
2023-04-02T12:34:16.546Z,98092.66
2023-04-02T12:36:52.847Z,98098.66
2023-04-02T12:39:20.933Z,98107.22
2023-04-02T12:41:49.329Z,98110.50
2023-04-02T12:44:18.745Z,98112.06
2023-04-02T12:46:49.204Z,98112.06
2023-04-02T12:49:22.831Z,98119.78
2023-04-02T12:51:52.085Z,98118.16
2023-04-02T12:54:20.906Z,98122.44
2023-04-02T12:56:49.491Z,98119.81
2023-04-02T12:59:31.660Z,98121.47
2023-04-02T13:02:02.512Z,98126.56
2023-04-02T13:04:31.440Z,98127.38
2023-04-02T13:06:59.913Z,98123.88
2023-04-02T13:09:31.084Z,98123.00
2023-04-02T13:11:59.558Z,98131.63
2023-04-02T13:14:28.276Z,98135.94
2023-04-02T13:16:56.335Z,98131.63
2023-04-02T13:19:28.365Z,98139.25
2023-04-02T13:21:57.553Z,98135.88
2023-04-02T13:24:26.615Z,98139.22
2023-04-02T13:26:55.890Z,98143.66
2023-04-02T13:29:29.712Z,98146.06
2023-04-02T13:31:58.610Z,98146.03
2023-04-02T13:34:36.285Z,98152.13
2023-04-02T13:37:04.229Z,98145.22
2023-04-02T13:39:32.229Z,98154.56
2023-04-02T13:42:03.568Z,98152.03
2023-04-02T13:44:33.416Z,98151.09
2023-04-02T13:47:02.090Z,98156.31
2023-04-02T13:49:32.618Z,98163.31
2023-04-02T13:52:03.407Z,98176.03
2023-04-02T13:54:35.093Z,98164.31
2023-04-02T13:57:03.320Z,98167.81
2023-04-02T13:59:32.518Z,98169.50
2023-04-02T14:02:04.129Z,98173.72
2023-04-02T14:04:34.918Z,98183.06
2023-04-02T14:07:13.602Z,98184.00
2023-04-02T14:09:50.544Z,98191.75
2023-04-02T14:12:24.146Z,98204.47
2023-04-02T14:14:58.057Z,98208.00
2023-04-02T14:17:30.663Z,98213.09
2023-04-02T14:20:12.687Z,98219.03
2023-04-02T14:22:50.267Z,98213.16
2023-04-02T14:25:22.640Z,98224.19
2023-04-02T14:27:54.799Z,98228.50
2023-04-02T14:30:28.063Z,98235.31
2023-04-02T14:32:59.518Z,98230.19
2023-04-02T14:35:32.437Z,98239.56
2023-04-02T14:38:07.163Z,98235.34
2023-04-02T14:40:38.485Z,98247.28
2023-04-02T14:43:09.378Z,98247.28
2023-04-02T14:45:46.155Z,98256.72
2023-04-02T14:48:21.478Z,98253.34
2023-04-02T14:50:53.334Z,98260.97
2023-04-02T14:53:24.625Z,98262.66
2023-04-02T14:55:54.655Z,98267.78
2023-04-02T14:58:24.881Z,98264.38
2023-04-02T15:00:56.164Z,98273.75
2023-04-02T15:03:25.364Z,98271.16
2023-04-02T15:05:57.017Z,98282.19
2023-04-02T15:08:28.385Z,98279.66
2023-04-02T15:11:03.578Z,98269.50
2023-04-02T15:13:36.822Z,98298.41
2023-04-02T15:16:11.622Z,98284.78
2023-04-02T15:18:40.187Z,98292.41
2023-04-02T15:21:26.006Z,98283.03
2023-04-02T15:23:57.780Z,98290.69
2023-04-02T15:26:32.906Z,98297.50
2023-04-02T15:29:07.573Z,98297.50
2023-04-02T15:31:37.508Z,98305.13
2023-04-02T15:34:18.475Z,98310.22
2023-04-02T15:36:56.857Z,98308.56
2023-04-02T15:39:32.102Z,98311.13
2023-04-02T15:42:06.290Z,98312.81
2023-04-02T15:44:35.648Z,98317.94
2023-04-02T15:47:09.379Z,98326.44
2023-04-02T15:49:43.609Z,98322.22
2023-04-02T15:52:17.628Z,98329.84
2023-04-02T15:54:57.850Z,98335.81
2023-04-02T15:57:34.341Z,98335.81
2023-04-02T16:00:16.885Z,98337.50
2023-04-02T16:02:55.302Z,98348.56
2023-04-02T16:05:28.168Z,98351.09
2023-04-02T16:08:04.942Z,98354.50
2023-04-02T16:10:41.745Z,98356.19
2023-04-02T16:13:14.863Z,98362.16
2023-04-02T16:15:45.030Z,98363.84
2023-04-02T16:18:18.127Z,98361.31
2023-04-02T16:20:47.786Z,98373.19
2023-04-02T16:23:18.734Z,98373.19
2023-04-02T16:25:56.535Z,98376.59
2023-04-02T16:28:25.899Z,98378.25
2023-04-02T16:30:57.142Z,98374.91
2023-04-02T16:33:34.136Z,98380.84
2023-04-02T16:36:09.010Z,98389.34
2023-04-02T16:38:44.864Z,98389.31
2023-04-02T16:41:18.772Z,98391.91
2023-04-02T16:43:51.437Z,98401.22
2023-04-02T16:46:38.213Z,98393.56
2023-04-02T16:49:13.278Z,98395.28
2023-04-02T16:51:43.603Z,98396.13
2023-04-02T16:54:15.370Z,98407.19
2023-04-02T16:56:50.193Z,98419.94
2023-04-02T16:59:22.499Z,98412.28
2023-04-02T17:01:55.901Z,98416.53
2023-04-02T17:04:50.967Z,98413.13
2023-04-02T17:07:28.069Z,98417.38
2023-04-02T17:10:04.032Z,98425.03
2023-04-02T17:12:35.884Z,98429.22
2023-04-02T17:15:17.048Z,98426.69
2023-04-02T17:17:54.979Z,98444.53
2023-04-02T17:20:25.502Z,98450.50
2023-04-02T17:22:54.041Z,98445.38
2023-04-02T17:25:26.252Z,98462.34
2023-04-02T17:27:56.136Z,98457.25
2023-04-02T17:30:37.008Z,98470.00
2023-04-02T17:33:07.620Z,98464.91
2023-04-02T17:35:41.593Z,98471.72
2023-04-02T17:38:15.804Z,98477.63
2023-04-02T17:40:51.156Z,98482.72
2023-04-02T17:43:27.553Z,98484.44
2023-04-02T17:45:57.581Z,98497.97
2023-04-02T17:48:31.452Z,98503.03
2023-04-02T17:51:04.407Z,98503.00
2023-04-02T17:53:41.203Z,98502.16
2023-04-02T17:56:18.259Z,98502.13
2023-04-02T17:58:55.994Z,98505.50
2023-04-02T18:01:27.456Z,98513.09
2023-04-02T18:04:01.839Z,98515.63
2023-04-02T18:06:33.801Z,98517.28
2023-04-02T18:09:10.902Z,98524.88
2023-04-02T18:11:47.372Z,98543.56
2023-04-02T18:14:26.988Z,98551.16
2023-04-02T18:16:59.660Z,98557.09
2023-04-02T18:19:34.691Z,98554.56
2023-04-02T18:22:09.392Z,98563.06
2023-04-02T18:24:50.934Z,98567.28
2023-04-02T18:27:28.697Z,98575.81
2023-04-02T18:30:00.120Z,98577.44
2023-04-02T18:32:37.185Z,98585.03
2023-04-02T18:35:09.334Z,98577.34
2023-04-02T18:37:40.143Z,98587.50
2023-04-02T18:40:20.169Z,98592.56
2023-04-02T18:42:55.029Z,98590.00
2023-04-02T18:45:25.677Z,98603.56
2023-04-02T18:47:58.627Z,98610.34
2023-04-02T18:50:31.746Z,98621.31
2023-04-02T18:53:00.003Z,98626.44
2023-04-02T18:55:29.475Z,98622.06
2023-04-02T18:58:02.445Z,98628.84
2023-04-02T19:00:32.720Z,98629.69
2023-04-02T19:03:03.564Z,98634.72
2023-04-02T19:05:38.274Z,98626.97
2023-04-02T19:08:11.587Z,98632.03
2023-04-02T19:10:40.516Z,98648.97
2023-04-02T19:13:15.351Z,98644.69
2023-04-02T19:15:49.513Z,98653.13
2023-04-02T19:18:24.123Z,98666.69
2023-04-02T19:20:58.013Z,98665.78
2023-04-02T19:23:32.457Z,98670.81
2023-04-02T19:26:02.811Z,98671.66
2023-04-02T19:28:35.669Z,98664.06
2023-04-02T19:31:16.340Z,98679.34
2023-04-02T19:33:49.594Z,98677.69
2023-04-02T19:36:27.866Z,98691.28
2023-04-02T19:39:04.389Z,98697.16
2023-04-02T19:41:35.533Z,98699.72
2023-04-02T19:44:05.647Z,98703.03
2023-04-02T19:46:33.898Z,98704.69
2023-04-02T19:49:06.421Z,98712.34
2023-04-02T19:51:34.994Z,98705.53
2023-04-02T19:54:03.255Z,98712.34
2023-04-02T19:56:31.274Z,98715.75
2023-04-02T19:59:02.440Z,98715.69
2023-04-02T20:01:37.976Z,98712.31
2023-04-02T20:04:06.762Z,98720.06
2023-04-02T20:06:34.794Z,98719.22
2023-04-02T20:09:03.259Z,98724.34
2023-04-02T20:11:31.490Z,98730.31
2023-04-02T20:13:59.962Z,98730.28
2023-04-02T20:16:28.396Z,98733.75
2023-04-02T20:18:58.559Z,98736.28
2023-04-02T20:21:26.840Z,98744.91
2023-04-02T20:23:55.153Z,98748.28
2023-04-02T20:26:23.829Z,98742.31
2023-04-02T20:28:52.200Z,98738.91
2023-04-02T20:31:20.748Z,98746.59
2023-04-02T20:33:49.328Z,98747.47
2023-04-02T20:36:18.875Z,98745.81
2023-04-02T20:38:47.065Z,98751.88
2023-04-02T20:41:16.368Z,98756.88
2023-04-02T20:43:44.652Z,98756.03
2023-04-02T20:46:13.296Z,98768.00
2023-04-02T20:48:41.984Z,98772.16
2023-04-02T20:51:10.851Z,98774.69
2023-04-02T20:53:40.565Z,98772.09
2023-04-02T20:56:09.339Z,98777.19
2023-04-02T20:58:38.265Z,98774.66
2023-04-02T21:01:08.288Z,98773.75
2023-04-02T21:03:37.072Z,98780.59
2023-04-02T21:06:05.662Z,98788.22
2023-04-02T21:08:33.869Z,98789.91
2023-04-02T21:11:07.079Z,98789.03
2023-04-02T21:13:36.625Z,98793.28
2023-04-02T21:16:05.583Z,98796.69
2023-04-02T21:18:34.176Z,98801.88
2023-04-02T21:21:03.309Z,98794.13
2023-04-02T21:23:32.310Z,98790.69
2023-04-02T21:26:02.342Z,98794.16
2023-04-02T21:28:34.730Z,98795.06
2023-04-02T21:31:04.029Z,98797.56
2023-04-02T21:33:32.729Z,98803.50
2023-04-02T21:36:06.861Z,98800.84
2023-04-02T21:38:35.008Z,98801.75
2023-04-02T21:41:13.610Z,98809.38
2023-04-02T21:43:44.121Z,98810.19
2023-04-02T21:46:12.248Z,98812.63
2023-04-02T21:48:40.800Z,98815.19
2023-04-02T21:51:12.763Z,98814.31
2023-04-02T21:53:41.260Z,98815.97
2023-04-02T21:56:10.164Z,98808.41
2023-04-02T21:58:38.853Z,98816.84
2023-04-02T22:01:11.512Z,98818.53
2023-04-02T22:03:48.834Z,98827.00
2023-04-02T22:06:19.963Z,98822.78
2023-04-02T22:08:48.615Z,98821.09
2023-04-02T22:11:17.413Z,98829.53
2023-04-02T22:13:46.975Z,98822.75
2023-04-02T22:16:18.177Z,98827.91
2023-04-02T22:18:47.260Z,98835.47
2023-04-02T22:21:16.478Z,98831.19
2023-04-02T22:23:45.397Z,98832.78
2023-04-02T22:26:14.649Z,98834.53
2023-04-02T22:28:42.900Z,98830.25
2023-04-02T22:31:12.956Z,98835.38
2023-04-02T22:33:42.795Z,98839.63
2023-04-02T22:36:11.345Z,98837.03
2023-04-02T22:38:39.804Z,98844.59
2023-04-02T22:41:09.307Z,98837.84
2023-04-02T22:43:37.801Z,98833.50
2023-04-02T22:46:06.750Z,98836.06
2023-04-02T22:48:36.055Z,98831.75
2023-04-02T22:51:05.920Z,98842.75
2023-04-02T22:53:35.051Z,98841.16
2023-04-02T22:56:03.765Z,98840.25
2023-04-02T22:58:31.900Z,98836.84
2023-04-02T23:01:04.030Z,98835.13
2023-04-02T23:03:32.110Z,98836.94
2023-04-02T23:06:01.239Z,98836.94
2023-04-02T23:08:30.923Z,98831.91
2023-04-02T23:11:02.804Z,98841.13
2023-04-02T23:13:31.045Z,98841.22
2023-04-02T23:15:59.596Z,98844.59
2023-04-02T23:18:27.663Z,98850.56
2023-04-02T23:20:55.770Z,98841.22
2023-04-02T23:23:23.702Z,98833.59
2023-04-02T23:26:03.180Z,98847.97
2023-04-02T23:28:31.435Z,98839.41
2023-04-02T23:31:00.951Z,98843.66
2023-04-02T23:33:29.430Z,98846.19
2023-04-02T23:35:58.520Z,98847.97
2023-04-02T23:38:27.425Z,98841.94
2023-04-02T23:40:57.372Z,98846.16
2023-04-02T23:43:25.830Z,98849.59
2023-04-02T23:45:55.404Z,98846.16
2023-04-02T23:48:23.814Z,98847.06
2023-04-02T23:50:51.561Z,98841.91
2023-04-02T23:53:21.256Z,98839.38
2023-04-02T23:55:49.630Z,98833.44
2023-04-02T23:58:19.534Z,98840.28
